Time;durP1;ratioP1;P1;durP2;ratioP2;P2;SDS_P1;SDS_P2;PMS_P1;PMS_P2;Temp;Humidity;BMP_temperature;BMP_pressure;BME280_temperature;BME280_humidity;BME280_pressure;Samples;Min_cycle;Max_cycle;Signal;HPM_P1;HPM_P2
2022/07/03 00:01:29;;;;;;;;;;;;;;;20.94;47.90;100711.78;4962660;28;6961;-77
2022/07/03 00:03:55;;;;;;;;;;;;;;;20.89;47.73;100716.09;4949192;28;7154;-77
2022/07/03 00:06:21;;;;;;;;;;;;;;;20.86;48.11;100720.41;4948038;28;6780;-78
2022/07/03 00:08:47;;;;;;;;;;;;;;;20.82;48.18;100716.88;4949342;28;7137;-77
2022/07/03 00:11:15;;;;;;;;;;;;;;;20.80;48.14;100714.22;4946586;28;6800;-77
2022/07/03 00:13:41;;;;;;;;;;;;;;;20.79;48.00;100712.47;4972934;28;7298;-77
2022/07/03 00:16:06;;;;;;;;;;;;;;;20.78;48.09;100708.13;4973523;28;6988;-78
2022/07/03 00:18:32;;;;;;;;;;;;;;;20.76;48.12;100701.13;4941888;28;7106;-77
2022/07/03 00:21:05;;;;;;;;;;;;;;;20.74;48.16;100705.47;4973359;28;6788;-77
2022/07/03 00:23:44;;;;;;;;;;;;;;;20.71;48.09;100697.63;4974657;28;7418;-77
2022/07/03 00:26:13;;;;;;;;;;;;;;;20.63;48.52;100695.81;4942974;28;6995;-77
2022/07/03 00:28:41;;;;;;;;;;;;;;;20.59;48.68;100688.84;4951960;28;7929;-77
2022/07/03 00:31:09;;;;;;;;;;;;;;;20.53;48.92;100679.22;4948623;28;6903;-77
2022/07/03 00:33:36;;;;;;;;;;;;;;;20.51;48.81;100680.06;4942434;28;7169;-77
2022/07/03 00:36:02;;;;;;;;;;;;;;;20.47;48.92;100679.16;4980292;28;6792;-77
2022/07/03 00:38:28;;;;;;;;;;;;;;;20.46;48.99;100672.19;4975213;28;7318;-77
2022/07/03 00:40:54;;;;;;;;;;;;;;;20.45;49.22;100675.66;4977313;28;6964;-77
2022/07/03 00:43:21;;;;;;;;;;;;;;;20.45;49.21;100672.16;4949201;28;6949;-77
2022/07/03 00:45:50;;;;;;;;;;;;;;;20.45;48.77;100666.97;4955558;28;7049;-77
2022/07/03 00:48:19;;;;;;;;;;;;;;;20.44;48.81;100668.72;4952610;28;6987;-78
2022/07/03 00:50:49;;;;;;;;;;;;;;;20.45;49.11;100669.56;4946731;28;7250;-77
2022/07/03 00:53:29;;;;;;;;;;;;;;;20.44;48.38;100673.03;4951039;28;7260;-77
2022/07/03 00:55:56;;;;;;;;;;;;;;;20.45;49.06;100677.38;4940085;28;7255;-77
2022/07/03 00:58:23;;;;;;;;;;;;;;;20.44;48.62;100678.22;4967117;28;7229;-77
2022/07/03 01:00:52;;;;;;;;;;;;;;;20.41;48.63;100679.06;4928794;28;6985;-77
2022/07/03 01:03:26;;;;;;;;;;;;;;;20.35;48.63;100676.41;4947858;28;6816;-77
2022/07/03 01:05:55;;;;;;;;;;;;;;;20.28;48.74;100678.06;4951090;28;7235;-78
2022/07/03 01:08:47;;;;;;;;;;;;;;;20.23;49.08;100679.72;4949668;28;6804;-77
2022/07/03 01:11:33;;;;;;;;;;;;;;;20.14;48.95;100677.88;4962620;28;7122;-78
2022/07/03 01:14:56;;;;;;;;;;;;;;;20.08;49.15;100670.84;4933482;28;7004;-77
2022/07/03 01:17:32;;;;;;;;;;;;;;;20.03;49.59;100671.66;4961009;28;7412;-77
2022/07/03 01:20:04;;;;;;;;;;;;;;;19.98;49.73;100676.78;4934012;28;7221;-77
2022/07/03 01:22:48;;;;;;;;;;;;;;;19.92;49.68;100672.34;4958382;28;6820;-78
2022/07/03 01:25:29;;;;;;;;;;;;;;;19.87;49.79;100666.22;4976227;28;7593;-77
2022/07/03 01:28:14;;;;;;;;;;;;;;;19.87;49.93;100675.75;4950734;28;6870;-77
2022/07/03 01:30:42;;;;;;;;;;;;;;;19.88;50.46;100677.47;4948420;28;7392;-77
2022/07/03 01:33:32;;;;;;;;;;;;;;;19.89;50.80;100672.31;4965157;28;7051;-77
2022/07/03 01:36:00;;;;;;;;;;;;;;;19.94;50.87;100672.41;4932210;28;7048;-77
2022/07/03 01:38:33;;;;;;;;;;;;;;;20.01;50.38;100665.56;4957535;28;6784;-78
2022/07/03 01:41:01;;;;;;;;;;;;;;;20.06;50.28;100663.91;4941028;28;6960;-78
2022/07/03 01:43:30;;;;;;;;;;;;;;;20.09;50.18;100662.22;4977007;28;6977;-78
2022/07/03 01:46:01;;;;;;;;;;;;;;;20.09;50.40;100663.94;4942830;28;7387;-78
2022/07/03 01:48:30;;;;;;;;;;;;;;;20.09;50.68;100664.81;4964145;28;6983;-78
2022/07/03 01:50:57;;;;;;;;;;;;;;;20.09;50.53;100662.22;4957891;28;7007;-78
2022/07/03 01:53:27;;;;;;;;;;;;;;;20.10;50.64;100658.75;4975092;28;7170;-78
2022/07/03 01:55:57;;;;;;;;;;;;;;;20.09;50.63;100658.72;4973150;28;7239;-78
2022/07/03 01:58:23;;;;;;;;;;;;;;;20.06;50.58;100662.16;4940370;28;7622;-77
2022/07/03 02:01:25;;;;;;;;;;;;;;;20.03;50.66;100659.53;4948538;28;7244;-78
2022/07/03 02:04:04;;;;;;;;;;;;;;;19.96;50.32;100660.28;4957587;28;6980;-78
2022/07/03 02:06:47;;;;;;;;;;;;;;;19.95;50.33;100656.84;4948257;28;6856;-78
2022/07/03 02:09:24;;;;;;;;;;;;;;;19.97;50.49;100651.63;4969490;28;7225;-78
2022/07/03 02:11:51;;;;;;;;;;;;;;;19.99;50.67;100652.56;4955598;28;6832;-78
2022/07/03 02:14:23;;;;;;;;;;;;;;;20.02;50.80;100647.38;4950470;28;7830;-78
2022/07/03 02:17:18;;;;;;;;;;;;;;;20.05;51.20;100641.34;4963204;28;7089;-77
2022/07/03 02:20:07;;;;;;;;;;;;;;;20.06;51.09;100636.16;4929144;28;7219;-78
2022/07/03 02:22:44;;;;;;;;;;;;;;;20.08;51.08;100641.38;4961130;28;7366;-77
2022/07/03 02:25:23;;;;;;;;;;;;;;;20.06;50.69;100641.34;4972843;28;6812;-78
2022/07/03 02:28:03;;;;;;;;;;;;;;;20.04;50.78;100632.66;4930848;28;7242;-78
2022/07/03 02:30:30;;;;;;;;;;;;;;;20.02;51.19;100643.88;4954765;28;7215;-77
2022/07/03 02:33:00;;;;;;;;;;;;;;;20.00;50.70;100645.59;4966271;28;7227;-78
2022/07/03 02:35:30;;;;;;;;;;;;;;;19.97;51.25;100656.84;4957592;28;9550;-78
2022/07/03 02:38:17;;;;;;;;;;;;;;;19.95;51.49;100651.63;4948609;28;7384;-77
2022/07/03 02:41:08;;;;;;;;;;;;;;;19.93;51.32;100655.03;4951631;28;6808;-77
2022/07/03 02:44:00;;;;;;;;;;;;;;;19.90;51.37;100640.25;4963680;28;7731;-77
2022/07/03 02:46:48;;;;;;;;;;;;;;;19.89;51.38;100648.00;4958520;28;7300;-78
2022/07/03 02:50:10;;;;;;;;;;;;;;;19.89;51.95;100646.31;4942079;28;7305;-77
2022/07/03 02:52:40;;;;;;;;;;;;;;;19.88;52.06;100648.88;4962004;28;6820;-76
2022/07/03 02:55:43;;;;;;;;;;;;;;;19.89;51.75;100648.91;4947096;28;7007;-75
2022/07/03 02:58:30;;;;;;;;;;;;;;;19.87;51.32;100654.94;4964179;28;7122;-75
2022/07/03 03:01:08;;;;;;;;;;;;;;;19.87;51.37;100652.34;4976690;28;7200;-76
2022/07/03 03:03:37;;;;;;;;;;;;;;;19.84;51.26;100661.84;4943916;28;6808;-75
2022/07/03 03:06:15;;;;;;;;;;;;;;;19.82;51.08;100675.69;4945555;28;7429;-75
2022/07/03 03:08:51;;;;;;;;;;;;;;;19.76;51.34;100673.84;4976977;28;6803;-75
2022/07/03 03:11:44;;;;;;;;;;;;;;;19.72;51.51;100674.69;4950032;28;6804;-75
2022/07/03 03:14:19;;;;;;;;;;;;;;;19.69;51.98;100677.22;4946210;28;6948;-76
2022/07/03 03:16:53;;;;;;;;;;;;;;;19.65;52.29;100680.63;4967054;28;7014;-76
2022/07/03 03:19:24;;;;;;;;;;;;;;;19.63;52.17;100682.34;4975962;28;6883;-75
2022/07/03 03:22:55;;;;;;;;;;;;;;;19.62;52.25;100691.00;4944560;28;7245;-75
2022/07/03 03:25:20;;;;;;;;;;;;;;;19.58;52.82;100687.47;4898505;29;7369;-75
2022/07/03 03:27:46;;;;;;;;;;;;;;;19.57;52.69;100688.31;4939622;28;7280;-75
2022/07/03 03:30:12;;;;;;;;;;;;;;;19.56;52.41;100692.63;4962908;28;6792;-75
2022/07/03 03:32:40;;;;;;;;;;;;;;;19.57;53.22;100699.59;4964017;28;7654;-75
2022/07/03 03:35:07;;;;;;;;;;;;;;;19.55;52.70;100690.91;4946766;28;6799;-75
2022/07/03 03:37:32;;;;;;;;;;;;;;;19.55;52.65;100692.59;4962283;28;6852;-75
2022/07/03 03:39:58;;;;;;;;;;;;;;;19.53;52.67;100697.81;4944892;28;7248;-76
2022/07/03 03:42:24;;;;;;;;;;;;;;;19.52;52.55;100700.38;4945415;28;6836;-75
2022/07/03 03:44:50;;;;;;;;;;;;;;;19.52;52.78;100696.06;4960402;28;8895;-75
2022/07/03 03:47:16;;;;;;;;;;;;;;;19.51;52.90;100702.09;4977762;28;7122;-75
2022/07/03 03:49:42;;;;;;;;;;;;;;;19.51;52.72;100702.09;4965460;28;7177;-75
2022/07/03 03:52:07;;;;;;;;;;;;;;;19.52;52.91;100705.56;4937181;28;8449;-76
2022/07/03 03:54:33;;;;;;;;;;;;;;;19.54;52.72;100706.44;4961715;28;6953;-75
2022/07/03 03:57:23;;;;;;;;;;;;;;;19.55;52.61;100716.00;4946094;28;6772;-75
2022/07/03 03:59:50;;;;;;;;;;;;;;;19.56;53.09;100716.03;4948698;28;8096;-75
2022/07/03 04:02:17;;;;;;;;;;;;;;;19.58;52.49;100710.88;4975536;28;6873;-75
2022/07/03 04:04:43;;;;;;;;;;;;;;;19.57;52.64;100714.31;4932807;28;8506;-75
2022/07/03 04:07:09;;;;;;;;;;;;;;;19.57;53.05;100716.94;4963272;28;7339;-75
2022/07/03 04:09:35;;;;;;;;;;;;;;;19.61;52.88;100717.84;4976041;28;6776;-75
2022/07/03 04:12:02;;;;;;;;;;;;;;;19.63;52.81;100717.00;4960432;28;6800;-76
2022/07/03 04:14:28;;;;;;;;;;;;;;;19.66;53.21;100710.97;4961874;28;6824;-75
2022/07/03 04:16:54;;;;;;;;;;;;;;;19.70;53.05;100716.25;4946464;28;8500;-75
2022/07/03 04:19:20;;;;;;;;;;;;;;;19.74;53.24;100709.38;4948114;28;6768;-75
2022/07/03 04:21:46;;;;;;;;;;;;;;;19.85;53.24;100702.59;4970961;28;6978;-75
2022/07/03 04:24:12;;;;;;;;;;;;;;;20.08;54.21;100707.28;4960233;28;8511;-75
2022/07/03 04:26:37;;;;;;;;;;;;;;;20.38;54.09;100716.38;4961147;28;7392;-77
2022/07/03 04:29:03;;;;;;;;;;;;;;;20.74;54.44;100714.16;4958074;28;7041;-75
2022/07/03 04:31:28;;;;;;;;;;;;;;;21.12;53.80;100719.78;4943954;28;6903;-75
2022/07/03 04:33:54;;;;;;;;;;;;;;;21.48;53.44;100716.63;4978581;28;7166;-75
2022/07/03 04:36:20;;;;;;;;;;;;;;;21.85;53.21;100712.56;4982339;28;7144;-75
2022/07/03 04:38:45;;;;;;;;;;;;;;;22.22;52.40;100714.50;4943451;28;6784;-76
2022/07/03 04:41:11;;;;;;;;;;;;;;;22.54;52.10;100719.88;4960987;28;6927;-75
2022/07/03 04:43:37;;;;;;;;;;;;;;;22.87;51.71;100710.38;4948833;28;6844;-76
2022/07/03 04:46:03;;;;;;;;;;;;;;;23.24;51.58;100724.38;4971308;28;7180;-76
2022/07/03 04:48:30;;;;;;;;;;;;;;;23.61;50.80;100720.91;4976613;28;6995;-76
2022/07/03 04:50:57;;;;;;;;;;;;;;;23.99;50.34;100715.63;4965622;28;6990;-75
2022/07/03 04:53:23;;;;;;;;;;;;;;;24.32;48.72;100725.13;4952022;28;7013;-75
2022/07/03 04:55:49;;;;;;;;;;;;;;;24.58;48.15;100721.53;4949407;28;7283;-76
2022/07/03 04:58:15;;;;;;;;;;;;;;;24.81;46.74;100722.28;4976979;28;7083;-76
2022/07/03 05:00:44;;;;;;;;;;;;;;;24.96;46.25;100729.22;4945205;28;7209;-76
2022/07/03 05:03:09;;;;;;;;;;;;;;;25.10;46.23;100734.34;4944551;28;6852;-75
2022/07/03 05:05:35;;;;;;;;;;;;;;;25.26;45.97;100736.00;4957762;28;7923;-75
2022/07/03 05:08:01;;;;;;;;;;;;;;;25.47;46.14;100738.44;4976768;28;7145;-75
2022/07/03 05:10:27;;;;;;;;;;;;;;;25.71;45.87;100740.91;4974622;28;7595;-76
2022/07/03 05:12:53;;;;;;;;;;;;;;;25.91;45.06;100746.81;4974176;28;6949;-76
2022/07/03 05:15:19;;;;;;;;;;;;;;;26.05;44.70;100745.78;4964252;28;6829;-76
2022/07/03 05:17:45;;;;;;;;;;;;;;;26.19;44.29;100745.63;4959476;28;7396;-76
2022/07/03 05:20:24;;;;;;;;;;;;;;;26.35;43.59;100751.59;4958232;28;6760;-76
2022/07/03 05:23:01;;;;;;;;;;;;;;;26.48;42.83;100747.94;4973532;28;7019;-76
2022/07/03 05:25:29;;;;;;;;;;;;;;;26.59;42.97;100746.94;4961128;28;8474;-75
2022/07/03 05:27:56;;;;;;;;;;;;;;;26.71;42.77;100749.38;4945618;28;6954;-75
2022/07/03 05:30:24;;;;;;;;;;;;;;;26.85;42.12;100746.56;4942357;28;6960;-76
2022/07/03 05:32:50;;;;;;;;;;;;;;;26.98;41.68;100757.81;4951600;28;7224;-75
2022/07/03 05:35:17;;;;;;;;;;;;;;;27.07;41.82;100750.69;4977123;28;7211;-75
2022/07/03 05:37:43;;;;;;;;;;;;;;;27.18;41.36;100749.59;4971282;28;6823;-75
2022/07/03 05:40:09;;;;;;;;;;;;;;;27.33;40.82;100757.28;4973549;28;7319;-75
2022/07/03 05:42:35;;;;;;;;;;;;;;;27.42;40.48;100754.50;4947441;28;7031;-76
2022/07/03 05:45:02;;;;;;;;;;;;;;;27.52;40.09;100747.31;4977953;28;6934;-75
2022/07/03 05:47:28;;;;;;;;;;;;;;;27.58;39.43;100753.38;4940855;28;6856;-75
2022/07/03 05:49:54;;;;;;;;;;;;;;;27.64;39.29;100756.81;4951613;28;6772;-75
2022/07/03 05:52:21;;;;;;;;;;;;;;;27.68;39.00;100751.47;4971123;28;6950;-75
2022/07/03 05:54:46;;;;;;;;;;;;;;;27.69;38.76;100755.84;4935140;28;6769;-76
2022/07/03 05:57:12;;;;;;;;;;;;;;;27.66;38.68;100752.38;4952542;28;7320;-77
2022/07/03 05:59:38;;;;;;;;;;;;;;;27.63;38.57;100762.97;4960061;28;7251;-77
2022/07/03 06:02:04;;;;;;;;;;;;;;;27.52;38.11;100763.13;4970948;28;6937;-76
2022/07/03 06:04:30;;;;;;;;;;;;;;;27.27;37.81;100756.50;4957907;28;7531;-75
2022/07/03 06:06:56;;;;;;;;;;;;;;;26.95;37.91;100757.00;4973591;28;7195;-75
2022/07/03 06:09:23;;;;;;;;;;;;;;;26.55;37.87;100758.34;4951398;28;6836;-75
2022/07/03 06:11:49;;;;;;;;;;;;;;;26.17;38.76;100757.91;4942978;28;7350;-75
2022/07/03 06:14:15;;;;;;;;;;;;;;;25.82;38.88;100762.66;4958715;28;6839;-75
2022/07/03 06:16:41;;;;;;;;;;;;;;;25.56;39.34;100761.13;4975780;28;6796;-75
2022/07/03 06:19:07;;;;;;;;;;;;;;;25.35;39.92;100768.28;4954186;28;6972;-75
2022/07/03 06:21:33;;;;;;;;;;;;;;;25.22;39.68;100766.63;4978553;28;7284;-75
2022/07/03 06:23:59;;;;;;;;;;;;;;;25.15;40.30;100759.69;4973656;28;6934;-75
2022/07/03 06:26:26;;;;;;;;;;;;;;;25.14;40.50;100761.41;4963437;28;7066;-75
2022/07/03 06:28:51;;;;;;;;;;;;;;;25.10;40.20;100757.94;4940125;28;7284;-75
2022/07/03 06:31:18;;;;;;;;;;;;;;;25.04;40.54;100752.75;4966047;28;6968;-75
2022/07/03 06:33:44;;;;;;;;;;;;;;;24.98;40.60;100758.03;4952651;28;7897;-75
2022/07/03 06:36:10;;;;;;;;;;;;;;;24.91;40.65;100765.06;4937187;28;7138;-75
2022/07/03 06:38:35;;;;;;;;;;;;;;;24.86;40.62;100771.22;4952671;28;6780;-75
2022/07/03 06:41:01;;;;;;;;;;;;;;;24.76;40.74;100770.34;4933799;28;8453;-75
2022/07/03 06:43:26;;;;;;;;;;;;;;;24.63;40.95;100773.03;4970874;28;6783;-75
2022/07/03 06:45:52;;;;;;;;;;;;;;;24.50;40.79;100774.84;4928123;28;7203;-75
2022/07/03 06:48:18;;;;;;;;;;;;;;;24.39;41.26;100768.78;4968571;28;6764;-75
2022/07/03 06:50:45;;;;;;;;;;;;;;;24.31;41.11;100765.31;4930896;28;9080;-75
2022/07/03 06:53:11;;;;;;;;;;;;;;;24.27;41.80;100761.81;4950967;28;6965;-75
2022/07/03 06:55:37;;;;;;;;;;;;;;;24.25;41.33;100761.84;4951431;28;8900;-75
2022/07/03 06:58:03;;;;;;;;;;;;;;;24.29;41.91;100762.72;4965209;28;6776;-75
2022/07/03 07:00:29;;;;;;;;;;;;;;;24.41;42.52;100764.38;4961197;28;7206;-75
2022/07/03 07:02:54;;;;;;;;;;;;;;;24.68;42.46;100773.03;4942233;28;6801;-75
2022/07/03 07:05:20;;;;;;;;;;;;;;;25.03;41.84;100774.63;4971872;28;6832;-76
2022/07/03 07:07:46;;;;;;;;;;;;;;;25.47;41.49;100776.91;4961719;28;7159;-75
2022/07/03 07:10:11;;;;;;;;;;;;;;;25.93;41.25;100767.81;4978229;28;6852;-75
2022/07/03 07:12:37;;;;;;;;;;;;;;;26.35;40.62;100772.63;4942966;28;6956;-75
2022/07/03 07:15:03;;;;;;;;;;;;;;;26.70;39.43;100763.44;4963503;28;7655;-75
2022/07/03 07:17:29;;;;;;;;;;;;;;;27.01;38.96;100762.16;4938800;28;6824;-75
2022/07/03 07:19:56;;;;;;;;;;;;;;;27.28;38.27;100775.75;4969240;28;6780;-75
2022/07/03 07:22:22;;;;;;;;;;;;;;;27.51;37.46;100772.75;4948679;28;7252;-75
2022/07/03 07:24:48;;;;;;;;;;;;;;;27.72;37.67;100778.59;4962056;28;7033;-75
2022/07/03 07:27:13;;;;;;;;;;;;;;;27.99;37.09;100773.72;4938930;28;6780;-75
2022/07/03 07:29:40;;;;;;;;;;;;;;;28.22;36.51;100769.81;4939531;28;6776;-75
2022/07/03 07:32:06;;;;;;;;;;;;;;;28.40;36.57;100771.19;4946446;28;7252;-76
2022/07/03 07:34:31;;;;;;;;;;;;;;;28.63;35.90;100778.63;4962746;28;6955;-75
2022/07/03 07:36:57;;;;;;;;;;;;;;;28.88;35.62;100769.34;4931066;28;7011;-76
2022/07/03 07:39:23;;;;;;;;;;;;;;;29.08;35.40;100768.88;4977020;28;7254;-76
2022/07/03 07:41:48;;;;;;;;;;;;;;;29.31;34.74;100772.72;4936022;28;7192;-75
2022/07/03 07:44:14;;;;;;;;;;;;;;;29.62;35.09;100766.69;4962833;28;7161;-76
2022/07/03 07:46:40;;;;;;;;;;;;;;;29.98;34.13;100760.47;4950385;28;6772;-76
2022/07/03 07:49:05;;;;;;;;;;;;;;;30.32;33.58;100763.06;4946867;28;6772;-76
2022/07/03 07:51:31;;;;;;;;;;;;;;;30.60;32.70;100761.38;4934521;28;6812;-76
2022/07/03 07:53:57;;;;;;;;;;;;;;;30.84;32.12;100753.63;4975987;28;8046;-75
2022/07/03 07:56:24;;;;;;;;;;;;;;;31.03;32.19;100752.13;4937707;28;7021;-75
2022/07/03 07:58:51;;;;;;;;;;;;;;;31.23;31.73;100747.09;4968400;28;7781;-77
2022/07/03 08:06:48;;;;;;;;;;;;;;;31.74;30.60;100748.06;4948496;28;6796;-75
2022/07/03 08:09:14;;;;;;;;;;;;;;;31.90;30.44;100750.16;4933499;28;8426;-75
2022/07/03 08:11:39;;;;;;;;;;;;;;;32.04;30.71;100747.91;4949020;28;6772;-75
2022/07/03 08:14:07;;;;;;;;;;;;;;;32.26;30.21;100741.78;4941555;28;6772;-76
2022/07/03 08:16:34;;;;;;;;;;;;;;;32.41;30.03;100745.66;4972940;28;7382;-75
2022/07/03 08:19:00;;;;;;;;;;;;;;;32.63;29.64;100750.13;4930414;28;7318;-75
2022/07/03 08:21:26;;;;;;;;;;;;;;;32.84;29.33;100748.44;4948190;28;6864;-75
2022/07/03 08:23:53;;;;;;;;;;;;;;;32.95;28.98;100740.91;4970497;28;6772;-75
2022/07/03 08:26:19;;;;;;;;;;;;;;;33.06;28.46;100736.97;4959214;28;7253;-76
2022/07/03 08:28:45;;;;;;;;;;;;;;;33.13;28.26;100742.88;4972105;28;6813;-75
2022/07/03 08:31:10;;;;;;;;;;;;;;;33.22;28.11;100737.19;4954688;28;8413;-75
2022/07/03 08:33:36;;;;;;;;;;;;;;;33.38;28.11;100748.03;4955949;28;7137;-76
2022/07/03 08:36:03;;;;;;;;;;;;;;;33.58;27.74;100749.84;4974356;28;6947;-76
2022/07/03 08:38:33;;;;;;;;;;;;;;;33.79;27.49;100741.88;4972808;28;6796;-75
2022/07/03 08:41:03;;;;;;;;;;;;;;;34.04;26.93;100754.09;4970116;28;6963;-75
2022/07/03 08:43:29;;;;;;;;;;;;;;;34.30;26.66;100744.06;4934327;28;7047;-77
2022/07/03 08:45:58;;;;;;;;;;;;;;;34.49;26.51;100755.56;4977100;28;6776;-76
2022/07/03 08:48:25;;;;;;;;;;;;;;;34.68;26.45;100745.88;4961982;28;7243;-76
2022/07/03 08:50:52;;;;;;;;;;;;;;;34.93;26.37;100748.19;4934269;28;8048;-75
2022/07/03 08:53:19;;;;;;;;;;;;;;;35.18;25.39;100753.19;4953126;28;6816;-75
2022/07/03 08:55:47;;;;;;;;;;;;;;;35.40;25.44;100741.44;4940971;28;6945;-76
2022/07/03 08:58:19;;;;;;;;;;;;;;;35.64;25.49;100748.25;4975963;28;6813;-76
2022/07/03 09:00:45;;;;;;;;;;;;;;;35.84;25.08;100752.53;4974231;28;6943;-76
2022/07/03 09:03:13;;;;;;;;;;;;;;;36.02;24.73;100750.69;4958902;28;6824;-76
2022/07/03 09:05:39;;;;;;;;;;;;;;;36.25;24.41;100740.63;4965255;28;7324;-76
2022/07/03 09:08:10;;;;;;;;;;;;;;;36.52;24.67;100743.53;4976729;28;6866;-76
2022/07/03 09:10:36;;;;;;;;;;;;;;;36.81;24.09;100748.22;4944319;28;8527;-76
2022/07/03 09:13:03;;;;;;;;;;;;;;;37.03;24.23;100746.97;4961135;28;6796;-76
2022/07/03 09:15:29;;;;;;;;;;;;;;;37.20;23.51;100743.31;4944000;28;7015;-75
2022/07/03 09:18:04;;;;;;;;;;;;;;;37.34;23.32;100747.84;4966920;28;7105;-75
2022/07/03 09:20:37;;;;;;;;;;;;;;;37.48;23.13;100742.53;4961900;28;7149;-75
2022/07/03 09:23:19;;;;;;;;;;;;;;;37.65;23.18;100733.50;4971237;28;6808;-76
2022/07/03 09:25:58;;;;;;;;;;;;;;;37.85;23.41;100743.91;4949642;28;7201;-76
2022/07/03 09:28:43;;;;;;;;;;;;;;;37.96;22.57;100740.56;4952081;28;7178;-76
2022/07/03 09:31:15;;;;;;;;;;;;;;;37.84;22.30;100744.88;4959688;28;6812;-76
2022/07/03 09:34:05;;;;;;;;;;;;;;;37.81;22.55;100739.72;4952983;28;7178;-75
2022/07/03 09:36:47;;;;;;;;;;;;;;;37.86;22.75;100734.94;4934518;28;7318;-75
2022/07/03 09:39:26;;;;;;;;;;;;;;;37.99;22.70;100735.03;4945398;28;7183;-75
2022/07/03 09:42:02;;;;;;;;;;;;;;;38.18;22.64;100732.09;4963555;28;6990;-75
2022/07/03 09:44:55;;;;;;;;;;;;;;;38.52;22.84;100732.59;4966724;28;7018;-75
2022/07/03 09:47:25;;;;;;;;;;;;;;;38.86;22.27;100738.41;4929084;28;6975;-75
2022/07/03 09:50:07;;;;;;;;;;;;;;;39.10;21.47;100736.91;4967827;28;7204;-76
2022/07/03 09:52:37;;;;;;;;;;;;;;;39.22;21.29;100741.41;4949451;28;6884;-76
2022/07/03 09:55:09;;;;;;;;;;;;;;;39.20;21.04;100742.47;4946562;28;7490;-76
2022/07/03 09:57:41;;;;;;;;;;;;;;;39.19;21.14;100744.31;4977019;28;6868;-76
2022/07/03 10:00:24;;;;;;;;;;;;;;;39.23;21.36;100748.47;4945036;28;6981;-76
2022/07/03 10:03:00;;;;;;;;;;;;;;;39.25;21.27;100743.03;4948364;28;11517;-76
2022/07/03 10:05:29;;;;;;;;;;;;;;;39.20;21.27;100742.47;4961409;28;7036;-76
2022/07/03 10:07:59;;;;;;;;;;;;;;;39.08;21.23;100739.66;4948116;28;8507;-76
2022/07/03 10:10:31;;;;;;;;;;;;;;;39.01;21.09;100749.06;4977612;28;7778;-76
2022/07/03 10:12:59;;;;;;;;;;;;;;;38.97;21.37;100740.41;4943851;28;6796;-76
2022/07/03 10:15:28;;;;;;;;;;;;;;;38.96;21.03;100740.50;4949596;28;7273;-76
2022/07/03 10:17:56;;;;;;;;;;;;;;;38.84;21.05;100739.47;4933624;28;7130;-75
2022/07/03 10:20:35;;;;;;;;;;;;;;;38.68;20.96;100734.28;4975874;28;7258;-76
2022/07/03 10:23:03;;;;;;;;;;;;;;;38.56;21.48;100742.16;4976695;28;6880;-76
2022/07/03 10:25:31;;;;;;;;;;;;;;;38.48;21.29;100742.63;4949814;28;6852;-75
2022/07/03 10:27:59;;;;;;;;;;;;;;;38.48;21.43;100741.75;4973322;28;7013;-75
2022/07/03 10:30:25;;;;;;;;;;;;;;;38.65;21.67;100743.34;4976697;28;6840;-75
2022/07/03 10:32:54;;;;;;;;;;;;;;;38.92;21.76;100737.13;4934688;28;7031;-75
2022/07/03 10:35:26;;;;;;;;;;;;;;;39.17;21.27;100746.25;4947140;28;6990;-76
2022/07/03 10:38:01;;;;;;;;;;;;;;;39.31;21.00;100739.94;4934610;28;7010;-76
2022/07/03 10:46:29;;;;;;;;;;;;;;;38.53;21.24;100744.16;4950424;28;7182;-76
2022/07/03 10:48:55;;;;;;;;;;;;;;;38.55;20.68;100737.75;4960340;28;7226;-75
2022/07/03 10:51:21;;;;;;;;;;;;;;;38.54;20.72;100741.41;4945122;28;7030;-76
2022/07/03 10:53:48;;;;;;;;;;;;;;;38.54;21.05;100738.72;4949604;28;7248;-75
2022/07/03 10:56:15;;;;;;;;;;;;;;;38.55;20.76;100739.56;4979417;28;6852;-75
2022/07/03 10:58:59;;;;;;;;;;;;;;;38.57;21.08;100740.31;4960955;28;8208;-75
2022/07/03 11:01:30;;;;;;;;;;;;;;;38.70;20.95;100737.69;4975219;28;7190;-75
2022/07/03 11:04:01;;;;;;;;;;;;;;;38.89;21.08;100745.38;4931412;28;7003;-75
2022/07/03 11:06:51;;;;;;;;;;;;;;;39.05;20.71;100745.25;4931041;28;6978;-75
2022/07/03 11:09:16;;;;;;;;;;;;;;;39.05;20.94;100737.19;4946511;28;7514;-75
2022/07/03 11:11:57;;;;;;;;;;;;;;;39.06;20.79;100736.25;4948485;28;7037;-76
2022/07/03 11:14:26;;;;;;;;;;;;;;;38.97;20.79;100747.56;4958009;28;6999;-76
2022/07/03 11:17:19;;;;;;;;;;;;;;;38.94;20.96;100742.41;4967545;28;7612;-75
2022/07/03 11:22:51;;;;;;;;;;;;;;;39.06;20.33;100725.53;4944220;28;6804;-76
2022/07/03 11:25:17;;;;;;;;;;;;;;;38.99;20.72;100734.94;4963912;28;6919;-76
2022/07/03 11:27:43;;;;;;;;;;;;;;;39.00;21.07;100725.94;4949645;28;7849;-76
2022/07/03 11:30:12;;;;;;;;;;;;;;;39.03;20.91;100726.56;4950526;28;6822;-76
2022/07/03 11:32:50;;;;;;;;;;;;;;;39.04;21.00;100727.44;4949219;28;7525;-76
2022/07/03 11:35:53;;;;;;;;;;;;;;;39.13;21.20;100725.97;4963093;28;7332;-76
2022/07/03 11:38:29;;;;;;;;;;;;;;;39.26;20.86;100725.97;4956078;28;7706;-77
2022/07/03 11:40:58;;;;;;;;;;;;;;;39.37;21.00;100726.09;4948607;28;6964;-77
2022/07/03 11:43:24;;;;;;;;;;;;;;;39.47;20.67;100722.81;4938048;28;7067;-76
2022/07/03 11:45:51;;;;;;;;;;;;;;;39.58;20.71;100713.06;4976940;28;6949;-77
2022/07/03 11:48:23;;;;;;;;;;;;;;;39.69;20.44;100714.13;4974444;28;8411;-76
2022/07/03 11:50:50;;;;;;;;;;;;;;;39.70;20.51;100727.41;4971935;28;7034;-76
2022/07/03 11:53:27;;;;;;;;;;;;;;;39.74;20.31;100716.47;4967515;28;6955;-76
2022/07/03 11:56:11;;;;;;;;;;;;;;;39.72;20.12;100727.28;4965787;28;7014;-75
2022/07/03 11:58:52;;;;;;;;;;;;;;;39.64;20.11;100719.81;4956932;28;7433;-76
2022/07/03 12:01:24;;;;;;;;;;;;;;;39.70;20.30;100714.00;4943737;28;6964;-75
2022/07/03 12:03:50;;;;;;;;;;;;;;;39.71;20.48;100714.84;4963213;28;7246;-76
2022/07/03 12:06:17;;;;;;;;;;;;;;;39.47;20.31;100722.81;4970448;28;7141;-76
2022/07/03 12:08:46;;;;;;;;;;;;;;;39.24;21.04;100720.72;4968879;28;7131;-76
2022/07/03 12:11:14;;;;;;;;;;;;;;;39.21;20.43;100723.63;4973513;28;6987;-77
2022/07/03 12:13:42;;;;;;;;;;;;;;;38.80;20.58;100728.09;4942650;28;7042;-76
2022/07/03 12:16:15;;;;;;;;;;;;;;;37.92;20.66;100722.06;4964211;28;6980;-76
2022/07/03 12:18:45;;;;;;;;;;;;;;;37.01;21.28;100728.34;4943307;28;8595;-80
2022/07/03 12:21:11;;;;;;;;;;;;;;;36.32;21.38;100730.47;4964002;28;6981;-76
2022/07/03 12:23:49;;;;;;;;;;;;;;;35.80;22.50;100727.00;4948460;28;6809;-76
2022/07/03 12:26:30;;;;;;;;;;;;;;;35.69;22.65;100724.91;4944614;28;8395;-76
2022/07/03 12:29:02;;;;;;;;;;;;;;;35.84;22.88;100721.44;4925741;28;7182;-76
2022/07/03 12:31:31;;;;;;;;;;;;;;;36.10;23.01;100711.16;4948542;28;6804;-75
2022/07/03 12:33:59;;;;;;;;;;;;;;;36.38;22.99;100722.97;4951777;28;6800;-76
2022/07/03 12:36:25;;;;;;;;;;;;;;;36.67;23.13;100720.47;4946317;28;6776;-76
2022/07/03 12:39:00;;;;;;;;;;;;;;;36.87;22.65;100713.13;4945386;28;6773;-76
2022/07/03 12:41:26;;;;;;;;;;;;;;;37.02;22.60;100716.69;4947525;28;6868;-76
2022/07/03 12:43:53;;;;;;;;;;;;;;;37.15;22.64;100711.53;4948003;28;6990;-76
2022/07/03 12:46:26;;;;;;;;;;;;;;;37.26;22.66;100710.03;4965723;28;8360;-76
2022/07/03 12:49:00;;;;;;;;;;;;;;;37.47;22.47;100707.88;4926673;28;7247;-75
2022/07/03 12:51:50;;;;;;;;;;;;;;;37.69;22.59;100702.09;4962443;28;7169;-76
2022/07/03 12:54:33;;;;;;;;;;;;;;;37.81;22.26;100713.81;4974124;28;6892;-76
2022/07/03 13:00:07;;;;;;;;;;;;;;;37.65;21.77;100705.91;4948637;28;8586;-76
2022/07/03 13:02:34;;;;;;;;;;;;;;;37.57;22.38;100708.19;4942190;28;6954;-75
2022/07/03 13:05:12;;;;;;;;;;;;;;;37.61;22.35;100710.56;4952225;28;7011;-76
2022/07/03 13:07:40;;;;;;;;;;;;;;;37.46;22.06;100706.16;4934117;28;8035;-75
2022/07/03 13:10:07;;;;;;;;;;;;;;;36.99;22.64;100713.34;4972840;28;6808;-76
2022/07/03 13:12:33;;;;;;;;;;;;;;;36.73;22.49;100723.75;4965509;28;7180;-76
2022/07/03 13:15:03;;;;;;;;;;;;;;;36.67;22.68;100719.63;4964767;28;7207;-75
2022/07/03 13:17:53;;;;;;;;;;;;;;;36.71;22.52;100721.16;4958467;28;7481;-76
2022/07/03 13:20:26;;;;;;;;;;;;;;;36.73;22.87;100713.09;4959502;28;7979;-76
2022/07/03 13:22:57;;;;;;;;;;;;;;;36.74;22.51;100706.78;4937724;28;8126;-76
2022/07/03 13:25:23;;;;;;;;;;;;;;;36.73;22.40;100699.72;4960893;28;7011;-76